Time;durP1;ratioP1;P1;durP2;ratioP2;P2;SDS_P1;SDS_P2;PMS_P1;PMS_P2;Temp;Humidity;BMP_temperature;BMP_pressure;BME280_temperature;BME280_humidity;BME280_pressure;Samples;Min_cycle;Max_cycle;Signal;HPM_P1;HPM_P2
2022/02/28 00:00:33;;;;;;;39.45;15.45;;;-0.20;99.90;;;;;;5088643;28;20161;-62
2022/02/28 00:02:59;;;;;;;25.95;10.65;;;-0.20;99.90;;;;;;5088483;28;20024;-62
2022/02/28 00:05:25;;;;;;;27.65;10.30;;;-0.20;99.90;;;;;;5067207;28;20043;-62
2022/02/28 00:07:51;;;;;;;23.35;11.02;;;-0.10;99.90;;;;;;5088990;28;20074;-63
2022/02/28 00:10:17;;;;;;;25.63;11.30;;;-0.10;99.90;;;;;;5072559;28;20032;-62
2022/02/28 00:12:43;;;;;;;32.95;13.52;;;-0.10;99.90;;;;;;5092392;28;20065;-62
2022/02/28 00:15:10;;;;;;;31.33;12.13;;;-0.10;99.90;;;;;;5073287;28;20037;-62
2022/02/28 00:17:36;;;;;;;36.22;13.38;;;-0.10;99.90;;;;;;5092373;28;20031;-63
2022/02/28 00:20:07;;;;;;;33.95;13.30;;;-0.10;99.90;;;;;;5056451;28;20032;-62
2022/02/28 00:22:33;;;;;;;35.60;14.73;;;-0.10;99.90;;;;;;5092014;28;20032;-64
2022/02/28 00:25:00;;;;;;;36.42;14.95;;;-0.10;99.90;;;;;;5074599;28;20075;-64
2022/02/28 00:27:26;;;;;;;30.67;12.57;;;0.00;99.90;;;;;;5091881;28;20036;-64
2022/02/28 00:29:52;;;;;;;33.17;12.73;;;0.00;99.90;;;;;;5075694;28;20108;-64
2022/02/28 00:32:19;;;;;;;30.20;11.98;;;0.00;99.90;;;;;;5091915;28;20031;-65
2022/02/28 00:34:44;;;;;;;34.38;12.68;;;0.00;99.90;;;;;;5076409;28;20054;-62
2022/02/28 00:37:10;;;;;;;37.92;15.15;;;0.10;99.90;;;;;;5091709;28;20028;-62
2022/02/28 00:39:35;;;;;;;33.20;12.07;;;0.10;99.90;;;;;;5077599;28;20033;-62
2022/02/28 00:42:01;;;;;;;38.30;14.50;;;0.00;99.90;;;;;;5087650;28;20028;-62
2022/02/28 00:44:26;;;;;;;29.70;13.50;;;0.10;99.90;;;;;;5090153;28;20040;-62
2022/02/28 00:46:52;;;;;;;32.17;13.43;;;0.10;99.90;;;;;;5091837;28;20020;-62
2022/02/28 00:49:17;;;;;;;43.47;17.35;;;0.10;99.90;;;;;;5090157;28;20032;-62
2022/02/28 00:51:43;;;;;;;33.22;13.38;;;0.10;99.90;;;;;;5092037;28;20442;-62
2022/02/28 00:54:08;;;;;;;36.10;13.48;;;0.10;99.90;;;;;;5090017;28;20082;-62
2022/02/28 00:56:34;;;;;;;30.20;12.57;;;0.20;99.90;;;;;;5092062;28;20028;-62
2022/02/28 00:58:59;;;;;;;39.90;16.55;;;0.20;99.90;;;;;;5089951;28;20097;-62
2022/02/28 01:01:25;;;;;;;43.42;18.30;;;0.10;99.90;;;;;;5091839;28;20016;-62
2022/02/28 01:03:50;;;;;;;35.63;14.20;;;0.10;99.90;;;;;;5089663;28;20044;-62
2022/02/28 01:06:16;;;;;;;34.35;13.75;;;0.10;99.90;;;;;;5091827;28;20437;-63
2022/02/28 01:08:41;;;;;;;29.83;12.93;;;0.10;99.90;;;;;;5089519;28;20494;-62
2022/02/28 01:11:07;;;;;;;29.35;11.18;;;0.10;99.90;;;;;;5091792;28;20066;-62
2022/02/28 01:13:32;;;;;;;31.88;11.55;;;0.20;99.90;;;;;;5089382;28;20036;-62
2022/02/28 01:15:58;;;;;;;25.75;10.75;;;0.20;99.90;;;;;;5091871;28;20032;-62
2022/02/28 01:18:23;;;;;;;30.02;11.82;;;0.20;99.90;;;;;;5089171;28;20027;-62
2022/02/28 01:20:51;;;;;;;33.97;14.45;;;0.20;99.90;;;;;;5071375;28;20392;-62
2022/02/28 01:23:16;;;;;;;43.05;18.05;;;0.20;99.90;;;;;;5090672;28;20036;-62
2022/02/28 01:25:42;;;;;;;41.95;16.35;;;0.10;99.90;;;;;;5071921;28;20028;-62
2022/02/28 01:28:08;;;;;;;34.45;14.43;;;0.20;99.90;;;;;;5090599;28;20073;-62
2022/02/28 01:30:34;;;;;;;40.42;15.07;;;0.20;99.90;;;;;;5072856;28;20056;-62
2022/02/28 01:33:00;;;;;;;32.55;12.90;;;0.20;99.90;;;;;;5090548;28;20434;-63
2022/02/28 01:35:25;;;;;;;32.42;13.75;;;0.20;99.90;;;;;;5074292;28;20036;-62
2022/02/28 01:37:51;;;;;;;39.63;14.85;;;0.20;99.90;;;;;;5090548;28;20570;-62
2022/02/28 01:40:16;;;;;;;35.90;15.32;;;0.20;99.90;;;;;;5075202;28;20071;-63
2022/02/28 01:42:43;;;;;;;34.00;15.05;;;0.20;99.90;;;;;;5082953;28;20032;-62
2022/02/28 01:45:15;;;;;;;40.83;17.00;;;0.20;99.90;;;;;;5076162;28;20060;-62
2022/02/28 01:47:41;;;;;;;42.25;16.33;;;0.20;99.90;;;;;;5090777;28;20395;-62
2022/02/28 01:50:07;;;;;;;40.60;17.45;;;0.20;99.90;;;;;;5076329;28;20040;-62
2022/02/28 01:52:33;;;;;;;41.55;16.02;;;0.10;99.90;;;;;;5090212;28;20031;-62
2022/02/28 01:54:58;;;;;;;35.60;14.02;;;0.10;99.90;;;;;;5077614;28;20055;-62
2022/02/28 01:57:24;;;;;;;33.33;13.07;;;0.20;99.90;;;;;;5089928;28;20043;-62
2022/02/28 01:59:51;;;;;;;30.70;12.68;;;0.20;99.90;;;;;;5088757;28;20042;-63
2022/02/28 02:02:17;;;;;;;27.13;11.73;;;0.30;99.90;;;;;;5090473;28;20032;-62
2022/02/28 02:04:42;;;;;;;36.63;13.20;;;0.30;99.90;;;;;;5088838;28;20376;-63
2022/02/28 02:07:09;;;;;;;35.55;14.77;;;0.30;99.90;;;;;;5090537;28;20156;-62
2022/02/28 02:09:35;;;;;;;33.17;12.93;;;0.30;99.90;;;;;;5088398;28;20178;-65
2022/02/28 02:12:04;;;;;;;30.60;12.02;;;0.30;99.90;;;;;;5090589;28;20111;-63
2022/02/28 02:14:32;;;;;;;32.60;12.95;;;0.30;99.90;;;;;;5088328;28;20028;-62
2022/02/28 02:16:58;;;;;;;40.38;17.85;;;0.30;99.90;;;;;;5090439;28;20019;-63
2022/02/28 02:19:23;;;;;;;37.20;16.17;;;0.30;99.90;;;;;;5088443;28;20028;-62
2022/02/28 02:21:50;;;;;;;32.58;14.55;;;0.20;99.90;;;;;;5090274;28;20125;-62
2022/02/28 02:24:15;;;;;;;29.55;12.10;;;0.10;99.90;;;;;;5088076;28;20086;-62
2022/02/28 02:26:41;;;;;;;29.70;14.20;;;0.10;99.90;;;;;;5090261;28;20112;-63
2022/02/28 02:29:06;;;;;;;32.00;14.50;;;0.10;99.90;;;;;;5088067;28;20030;-62
2022/02/28 02:31:32;;;;;;;32.53;13.18;;;0.10;99.90;;;;;;5089697;28;20035;-62
2022/02/28 02:33:58;;;;;;;36.90;14.90;;;0.10;99.90;;;;;;5087862;28;20442;-62
2022/02/28 02:36:23;;;;;;;35.35;15.52;;;0.10;99.90;;;;;;5090247;28;20028;-62
2022/02/28 02:38:51;;;;;;;43.25;15.13;;;0.00;99.90;;;;;;5087833;28;20074;-62
2022/02/28 02:41:17;;;;;;;33.70;15.38;;;0.00;99.90;;;;;;5089764;28;20008;-62
2022/02/28 02:43:42;;;;;;;36.63;14.98;;;0.10;99.90;;;;;;5080889;28;20101;-62
2022/02/28 02:46:08;;;;;;;34.05;13.82;;;0.00;99.90;;;;;;5089915;28;20499;-62
2022/02/28 02:48:33;;;;;;;34.35;13.48;;;0.10;99.90;;;;;;5089862;28;20020;-62
2022/02/28 02:50:59;;;;;;;34.22;13.88;;;0.10;99.90;;;;;;5087815;28;20035;-62
2022/02/28 02:53:25;;;;;;;31.45;13.52;;;0.00;99.90;;;;;;5089778;28;20031;-62
2022/02/28 02:55:50;;;;;;;41.03;14.55;;;0.00;99.90;;;;;;5069011;28;20384;-62
2022/02/28 02:58:16;;;;;;;32.83;14.35;;;0.00;99.90;;;;;;5088995;28;20032;-62
2022/02/28 03:00:44;;;;;;;39.05;16.25;;;0.00;99.90;;;;;;5070181;28;20024;-63
2022/02/28 03:03:11;;;;;;;34.85;14.40;;;0.00;99.90;;;;;;5089434;28;20043;-62
2022/02/28 03:05:37;;;;;;;37.85;16.65;;;0.00;99.90;;;;;;5070761;28;20120;-63
2022/02/28 03:08:04;;;;;;;39.47;16.65;;;-0.10;99.90;;;;;;5088904;28;20028;-62
2022/02/28 03:10:29;;;;;;;37.53;14.73;;;-0.10;99.90;;;;;;5071454;28;20032;-62
2022/02/28 03:12:55;;;;;;;38.63;16.58;;;-0.10;99.90;;;;;;5088979;28;20081;-63
2022/02/28 03:15:20;;;;;;;42.42;18.90;;;0.00;99.90;;;;;;5072720;28;20032;-62
2022/02/28 03:17:46;;;;;;;36.15;15.05;;;0.00;99.90;;;;;;5088720;28;20031;-62
2022/02/28 03:20:12;;;;;;;35.53;13.95;;;0.00;99.90;;;;;;5074026;28;20294;-62
2022/02/28 03:22:37;;;;;;;34.67;16.67;;;0.00;99.90;;;;;;5088721;28;20067;-62
2022/02/28 03:25:04;;;;;;;40.22;16.15;;;-0.10;99.90;;;;;;5055084;28;20064;-62
2022/02/28 03:27:30;;;;;;;33.30;14.45;;;-0.10;99.90;;;;;;5068160;28;20488;-63
2022/02/28 03:29:56;;;;;;;34.00;16.25;;;-0.10;99.90;;;;;;5066948;28;20039;-62
2022/02/28 03:32:21;;;;;;;32.90;14.55;;;-0.10;99.90;;;;;;5068603;28;20466;-61
2022/02/28 03:34:47;;;;;;;33.22;14.52;;;-0.10;99.90;;;;;;5066940;28;20071;-62
2022/02/28 03:37:12;;;;;;;36.45;15.50;;;-0.10;99.90;;;;;;5068666;28;20115;-62
2022/02/28 03:39:38;;;;;;;39.25;18.48;;;-0.10;99.90;;;;;;5067010;28;20035;-62
2022/02/28 03:42:04;;;;;;;37.78;16.38;;;-0.20;99.90;;;;;;5061128;28;20353;-62
2022/02/28 03:44:29;;;;;;;45.17;19.50;;;-0.20;99.90;;;;;;5066415;28;20101;-62
2022/02/28 03:46:55;;;;;;;43.60;17.40;;;-0.30;99.90;;;;;;5068940;28;20021;-62
2022/02/28 03:49:21;;;;;;;38.47;16.67;;;-0.20;99.90;;;;;;5066521;28;20051;-63
2022/02/28 03:51:46;;;;;;;44.58;16.83;;;-0.30;99.90;;;;;;5068828;28;20048;-62
2022/02/28 03:54:13;;;;;;;31.33;14.43;;;-0.20;99.90;;;;;;5066495;28;20570;-63
2022/02/28 03:56:40;;;;;;;38.38;14.90;;;-0.30;99.90;;;;;;5068895;28;20021;-62
2022/02/28 03:59:09;;;;;;;39.88;16.23;;;-0.20;99.90;;;;;;5066673;28;20498;-63
2022/02/28 04:01:35;;;;;;;35.08;17.13;;;-0.20;99.90;;;;;;5068572;28;20127;-62
2022/02/28 04:04:02;;;;;;;35.00;16.70;;;-0.20;99.90;;;;;;5066492;28;20115;-63
2022/02/28 04:06:29;;;;;;;36.67;15.20;;;-0.20;99.90;;;;;;5068569;28;20028;-63
2022/02/28 04:08:55;;;;;;;32.60;13.45;;;-0.20;99.90;;;;;;5066306;28;20503;-62
2022/02/28 04:11:20;;;;;;;32.20;14.57;;;-0.10;99.90;;;;;;5068702;28;20040;-62
2022/02/28 04:13:46;;;;;;;31.48;14.65;;;-0.10;99.90;;;;;;5066230;28;20085;-62
2022/02/28 04:16:11;;;;;;;35.50;14.43;;;-0.10;99.90;;;;;;5068746;28;20032;-63
2022/02/28 04:18:37;;;;;;;39.10;15.43;;;-0.10;99.90;;;;;;5066358;28;20028;-62
2022/02/28 04:21:03;;;;;;;40.13;15.38;;;-0.10;99.90;;;;;;5068287;28;20038;-63
2022/02/28 04:23:28;;;;;;;35.28;16.15;;;-0.20;99.90;;;;;;5075002;28;20154;-62
2022/02/28 04:25:53;;;;;;;31.95;15.45;;;-0.20;99.90;;;;;;5067809;28;20036;-63
2022/02/28 04:28:19;;;;;;;32.97;14.73;;;-0.20;99.90;;;;;;5087745;28;20043;-63
2022/02/28 04:30:45;;;;;;;40.05;16.27;;;-0.20;99.90;;;;;;5068508;28;20119;-62
2022/02/28 04:33:10;;;;;;;34.17;14.50;;;-0.20;99.90;;;;;;5087756;28;20031;-62
2022/02/28 04:35:36;;;;;;;37.03;16.15;;;-0.20;99.90;;;;;;5069824;28;20671;-63
2022/02/28 04:38:03;;;;;;;36.42;14.88;;;-0.30;99.90;;;;;;5085572;28;20024;-62
2022/02/28 04:40:28;;;;;;;32.38;13.77;;;-0.30;99.90;;;;;;5085005;28;20024;-62
2022/02/28 04:42:54;;;;;;;33.33;14.32;;;-0.30;99.90;;;;;;5070816;28;20131;-63
2022/02/28 04:45:19;;;;;;;37.35;16.10;;;-0.30;99.90;;;;;;5085784;28;20126;-63
2022/02/28 04:47:45;;;;;;;30.33;13.38;;;-0.30;99.90;;;;;;5088373;28;20025;-63
2022/02/28 04:50:10;;;;;;;33.33;14.73;;;-0.40;99.90;;;;;;5086072;28;20131;-63
2022/02/28 04:52:36;;;;;;;27.85;11.30;;;-0.40;99.90;;;;;;5088385;28;20032;-62
2022/02/28 04:55:02;;;;;;;33.45;15.85;;;-0.40;99.90;;;;;;5089243;28;20031;-62
2022/02/28 04:57:34;;;;;;;29.38;13.80;;;-0.40;99.90;;;;;;5091866;28;20495;-48
2022/02/28 05:00:00;;;;;;;31.30;14.13;;;-0.40;99.90;;;;;;5066099;28;20044;-45
2022/02/28 05:02:25;;;;;;;29.63;12.68;;;-0.40;99.90;;;;;;5073754;28;20034;-45
2022/02/28 05:04:51;;;;;;;31.73;13.35;;;-0.40;99.90;;;;;;5090007;28;20051;-46
2022/02/28 05:07:16;;;;;;;27.25;12.02;;;-0.40;99.90;;;;;;5092166;28;20028;-48
2022/02/28 05:09:42;;;;;;;27.92;12.05;;;-0.40;99.90;;;;;;5089859;28;20483;-48
2022/02/28 05:12:07;;;;;;;30.85;13.48;;;-0.40;99.90;;;;;;5092106;28;20055;-48
2022/02/28 05:14:33;;;;;;;32.85;14.93;;;-0.40;99.90;;;;;;5089525;28;20419;-45
2022/02/28 05:16:58;;;;;;;25.75;10.50;;;-0.40;99.90;;;;;;5091953;28;20024;-47
2022/02/28 05:19:24;;;;;;;29.23;13.23;;;-0.30;99.90;;;;;;5089905;28;20222;-49
2022/02/28 05:21:49;;;;;;;27.98;11.77;;;-0.30;99.90;;;;;;5092078;28;20381;-51
2022/02/28 05:24:15;;;;;;;30.35;12.57;;;-0.30;99.90;;;;;;5089329;28;20408;-48
2022/02/28 05:26:40;;;;;;;33.65;14.77;;;-0.30;99.90;;;;;;5091569;28;20032;-52
2022/02/28 05:29:06;;;;;;;31.95;13.50;;;-0.30;99.90;;;;;;5089345;28;20042;-46
2022/02/28 05:31:31;;;;;;;30.17;13.25;;;-0.40;99.90;;;;;;5091700;28;20035;-48
2022/02/28 05:33:57;;;;;;;33.53;14.27;;;-0.40;99.90;;;;;;5091356;28;20098;-50
2022/02/28 05:36:22;;;;;;;36.55;14.65;;;-0.40;99.90;;;;;;5069958;28;20527;-47
2022/02/28 05:38:47;;;;;;;33.70;14.95;;;-0.40;99.90;;;;;;5090603;28;20058;-51
2022/02/28 05:41:13;;;;;;;30.23;13.82;;;-0.50;99.90;;;;;;5071367;28;20472;-47
2022/02/28 05:43:39;;;;;;;31.88;12.60;;;-0.50;99.90;;;;;;5083667;28;20016;-47
2022/02/28 05:46:04;;;;;;;26.95;12.68;;;-0.50;99.90;;;;;;5072498;28;20043;-46
2022/02/28 05:48:30;;;;;;;28.52;13.18;;;-0.50;99.90;;;;;;5086787;28;20064;-52
2022/02/28 05:50:55;;;;;;;26.48;11.25;;;-0.40;99.90;;;;;;5091313;28;20410;-47
2022/02/28 05:53:21;;;;;;;31.48;13.10;;;-0.40;99.90;;;;;;5088947;28;20116;-49
2022/02/28 05:55:46;;;;;;;27.67;11.85;;;-0.40;99.90;;;;;;5091486;28;20016;-48
2022/02/28 05:58:12;;;;;;;27.08;12.77;;;-0.40;99.90;;;;;;5088909;28;20039;-49
2022/02/28 06:00:38;;;;;;;41.10;14.13;;;-0.40;99.90;;;;;;5088737;28;20050;-48
2022/02/28 06:03:43;;;;;;;34.13;13.02;;;-0.40;99.90;;;;;;5072570;28;20262;-46
2022/02/28 06:07:08;;;;;;;32.00;11.85;;;-0.40;99.90;;;;;;5071800;28;20071;-46
2022/02/28 06:10:34;;;;;;;38.00;13.10;;;-0.30;99.90;;;;;;5050330;28;20504;-49
2022/02/28 06:13:59;;;;;;;30.35;12.45;;;-0.20;99.90;;;;;;5050069;28;20035;-46
2022/02/28 06:17:24;;;;;;;31.90;14.35;;;-0.20;99.90;;;;;;5064834;28;20028;-51
2022/02/28 06:20:50;;;;;;;35.58;14.88;;;-0.20;99.90;;;;;;5086589;28;20028;-47
2022/02/28 06:24:15;;;;;;;35.13;14.82;;;-0.20;99.90;;;;;;5078410;28;20079;-49
2022/02/28 06:27:41;;;;;;;30.63;11.15;;;-0.20;99.90;;;;;;5076802;28;20036;-47
2022/02/28 06:31:06;;;;;;;34.88;14.68;;;-0.10;99.90;;;;;;5076532;28;20028;-46
2022/02/28 06:34:31;;;;;;;33.00;13.73;;;0.00;99.90;;;;;;5090256;28;20036;-48
2022/02/28 06:37:57;;;;;;;33.40;14.52;;;0.00;99.90;;;;;;5081022;28;20032;-50
2022/02/28 06:41:22;;;;;;;34.47;15.50;;;0.00;99.90;;;;;;5076057;28;20058;-47
2022/02/28 06:44:47;;;;;;;34.97;15.98;;;0.00;99.90;;;;;;5077956;28;20044;-47
2022/02/28 06:48:13;;;;;;;39.15;15.65;;;0.00;99.90;;;;;;5085210;28;20032;-47
2022/02/28 06:51:38;;;;;;;39.90;17.00;;;0.10;99.90;;;;;;5075982;28;20488;-49
2022/02/28 06:55:03;;;;;;;35.28;14.10;;;0.00;99.90;;;;;;5067055;28;20029;-52
2022/02/28 06:58:29;;;;;;;35.05;13.60;;;0.10;99.90;;;;;;5082670;28;20042;-50
2022/02/28 07:01:54;;;;;;;37.58;16.05;;;0.10;99.90;;;;;;5064968;28;20063;-48
2022/02/28 07:05:20;;;;;;;37.40;15.50;;;0.10;99.90;;;;;;5075519;28;20052;-52
2022/02/28 07:08:45;;;;;;;29.40;12.70;;;0.00;99.90;;;;;;5072020;28;20510;-50
2022/02/28 07:12:10;;;;;;;33.42;15.43;;;0.10;99.90;;;;;;5073259;28;20097;-49
2022/02/28 07:15:36;;;;;;;34.03;13.15;;;0.10;99.90;;;;;;5076797;28;20483;-48
2022/02/28 07:19:01;;;;;;;33.75;13.75;;;0.20;99.90;;;;;;5062741;28;20028;-51
2022/02/28 07:22:26;;;;;;;34.08;14.82;;;0.20;99.90;;;;;;5082106;28;20044;-50
2022/02/28 07:25:52;;;;;;;35.58;15.13;;;0.30;99.90;;;;;;5078717;28;20052;-49
2022/02/28 07:29:17;;;;;;;28.80;11.70;;;0.30;99.90;;;;;;5060318;28;20037;-51
2022/02/28 07:32:43;;;;;;;27.70;12.25;;;0.30;99.90;;;;;;5080252;28;20036;-52
2022/02/28 07:36:08;;;;;;;36.28;16.50;;;0.40;99.90;;;;;;5087326;28;20057;-50
2022/02/28 07:39:33;;;;;;;32.00;14.55;;;0.40;99.90;;;;;;5063948;28;20384;-49
2022/02/28 07:42:59;;;;;;;30.08;14.13;;;0.40;99.90;;;;;;5071290;28;20032;-48
2022/02/28 07:46:24;;;;;;;32.53;13.55;;;0.40;99.90;;;;;;5047572;28;20084;-49
2022/02/28 07:49:49;;;;;;;28.88;12.68;;;0.40;99.90;;;;;;5083071;28;20446;-47
2022/02/28 07:53:15;;;;;;;28.48;13.05;;;0.50;99.90;;;;;;5074583;28;20376;-50
2022/02/28 07:56:40;;;;;;;33.65;15.93;;;0.60;99.90;;;;;;5075327;28;20031;-48
2022/02/28 08:00:05;;;;;;;29.70;13.02;;;0.60;99.90;;;;;;5076138;28;20044;-51
2022/02/28 08:03:31;;;;;;;27.35;13.40;;;0.60;99.90;;;;;;5066686;28;20045;-48
2022/02/28 08:06:56;;;;;;;23.77;11.25;;;0.50;99.90;;;;;;5076310;28;20036;-47
2022/02/28 08:10:22;;;;;;;24.40;10.60;;;0.70;99.90;;;;;;5083749;28;20487;-49
2022/02/28 08:13:47;;;;;;;24.98;10.95;;;0.90;99.90;;;;;;5065842;28;20059;-47
2022/02/28 08:17:12;;;;;;;29.52;12.45;;;1.10;99.90;;;;;;5075811;28;20074;-46
2022/02/28 08:20:38;;;;;;;35.00;14.30;;;1.20;99.90;;;;;;5076268;28;20032;-49
2022/02/28 08:24:03;;;;;;;27.73;10.65;;;1.20;99.90;;;;;;5067075;28;20032;-49
2022/02/28 08:27:28;;;;;;;27.02;11.80;;;1.30;99.90;;;;;;5047193;28;20095;-45
2022/02/28 08:30:54;;;;;;;29.65;11.85;;;1.40;99.90;;;;;;5079482;28;20506;-47
2022/02/28 08:34:19;;;;;;;29.02;11.93;;;1.50;99.90;;;;;;5078612;28;20039;-46
2022/02/28 08:37:45;;;;;;;23.13;10.55;;;1.60;99.90;;;;;;5085474;28;20078;-50
2022/02/28 08:41:10;;;;;;;23.63;11.20;;;1.70;99.90;;;;;;5091220;28;20047;-48
2022/02/28 08:44:35;;;;;;;25.30;12.20;;;1.80;99.90;;;;;;5082646;28;20436;-48
2022/02/28 08:48:00;;;;;;;23.58;11.27;;;1.70;99.90;;;;;;5076354;28;20040;-48
2022/02/28 08:51:26;;;;;;;24.30;10.73;;;1.80;99.90;;;;;;5050626;28;20504;-47
2022/02/28 08:54:51;;;;;;;23.80;10.63;;;1.80;99.90;;;;;;5087122;28;20097;-49
2022/02/28 08:58:17;;;;;;;24.67;12.02;;;2.00;99.90;;;;;;5085209;28;20127;-47
2022/02/28 09:01:42;;;;;;;23.92;12.20;;;2.20;99.90;;;;;;5050395;28;20056;-53
2022/02/28 09:05:07;;;;;;;26.13;12.05;;;2.20;99.90;;;;;;5087837;28;20044;-50
2022/02/28 09:08:33;;;;;;;26.95;13.27;;;2.40;99.90;;;;;;5069450;28;20270;-51
2022/02/28 09:11:58;;;;;;;29.20;13.27;;;2.40;99.90;;;;;;5079721;28;20035;-49
2022/02/28 09:15:23;;;;;;;31.05;15.10;;;2.30;99.90;;;;;;5084973;28;20039;-49
2022/02/28 09:18:49;;;;;;;21.92;10.05;;;2.60;99.90;;;;;;5074568;28;20164;-46
2022/02/28 09:22:15;;;;;;;24.95;12.40;;;3.00;99.90;;;;;;5055650;28;20032;-50
2022/02/28 09:25:39;;;;;;;24.90;12.20;;;2.90;99.90;;;;;;5049669;28;20048;-50
2022/02/28 09:29:05;;;;;;;23.08;11.23;;;3.00;99.90;;;;;;5073782;28;20028;-47
2022/02/28 09:32:30;;;;;;;28.92;13.93;;;3.20;99.90;;;;;;5087370;28;20058;-51
2022/02/28 09:35:56;;;;;;;28.52;13.98;;;2.90;99.90;;;;;;5091201;28;20093;-49
2022/02/28 09:39:21;;;;;;;27.77;13.82;;;2.70;99.90;;;;;;5078563;28;20133;-53
2022/02/28 09:42:46;;;;;;;27.73;13.70;;;2.30;99.90;;;;;;5070074;28;20085;-51
2022/02/28 09:46:12;;;;;;;35.47;15.98;;;2.40;99.90;;;;;;5090615;28;20492;-49
2022/02/28 09:49:37;;;;;;;28.52;13.93;;;2.20;99.90;;;;;;5083129;28;20036;-53
2022/02/28 09:53:02;;;;;;;36.75;17.08;;;2.40;99.90;;;;;;5082810;28;20020;-52
2022/02/28 09:56:28;;;;;;;34.95;16.73;;;2.60;99.90;;;;;;5050716;28;20033;-54
2022/02/28 09:59:53;;;;;;;29.92;15.50;;;3.00;99.90;;;;;;5087313;28;20036;-53
2022/02/28 10:03:18;;;;;;;35.67;18.17;;;5.00;99.90;;;;;;5071542;28;20043;-50
2022/02/28 10:06:44;;;;;;;32.72;16.23;;;5.30;93.20;;;;;;5050526;28;20041;-50
2022/02/28 10:10:28;;;;;;;39.08;19.67;;;5.00;95.80;;;;;;5050522;28;20405;-49
2022/02/28 10:13:53;;;;;;;31.17;15.98;;;4.80;96.70;;;;;;5065934;28;20115;-48
2022/02/28 10:17:18;;;;;;;33.25;16.92;;;4.50;98.10;;;;;;5078866;28;20613;-51
2022/02/28 10:20:47;;;;;;;30.75;15.73;;;3.80;99.90;;;;;;5079356;28;20040;-49
2022/02/28 10:24:12;;;;;;;36.58;18.40;;;3.30;99.90;;;;;;5063772;28;20041;-54
2022/02/28 10:27:38;;;;;;;31.55;15.38;;;2.70;99.90;;;;;;5076994;28;20044;-50
2022/02/28 10:31:12;;;;;;;34.60;16.40;;;2.40;99.90;;;;;;5089874;28;20055;-51
2022/02/28 10:35:59;;;;;;;40.55;17.58;;;2.30;99.90;;;;;;5081988;28;20047;-47
2022/02/28 10:38:02;;;;;;;36.28;17.30;;;2.20;99.90;;;;;;5067150;28;20103;-50
2022/02/28 10:41:28;;;;;;;30.98;13.95;;;2.10;99.90;;;;;;5086365;28;20040;-48
2022/02/28 10:44:53;;;;;;;36.17;15.02;;;2.10;99.90;;;;;;5086224;28;20555;-48
2022/02/28 10:48:25;;;;;;;33.22;15.75;;;2.10;99.90;;;;;;5070442;28;20031;-49
2022/02/28 10:52:07;;;;;;;31.58;14.85;;;2.30;99.90;;;;;;5081019;28;20047;-48
2022/02/28 10:55:31;;;;;;;31.42;13.73;;;2.20;99.90;;;;;;5051937;28;20278;-47
2022/02/28 10:58:21;;;;;;;25.77;11.93;;;2.10;99.90;;;;;;5064694;28;20325;-60
2022/02/28 11:00:50;;;;;;;30.27;13.93;;;2.20;99.90;;;;;;5049563;28;20037;-59
2022/02/28 11:03:16;;;;;;;28.48;14.40;;;2.40;99.90;;;;;;5075413;28;20033;-60
2022/02/28 11:05:57;;;;;;;33.15;15.38;;;2.30;99.90;;;;;;5088819;28;20501;-59
2022/02/28 11:08:24;;;;;;;31.63;14.13;;;2.30;99.90;;;;;;5075259;28;20017;-59
2022/02/28 11:10:51;;;;;;;30.10;13.80;;;2.40;99.90;;;;;;5088913;28;20032;-60
2022/02/28 11:13:17;;;;;;;28.60;13.50;;;2.40;99.90;;;;;;5075745;28;20031;-60
2022/02/28 11:15:43;;;;;;;34.85;15.15;;;2.40;99.90;;;;;;5088693;28;20028;-59
2022/02/28 11:18:16;;;;;;;29.88;13.98;;;2.40;99.90;;;;;;5087213;28;20081;-60
2022/02/28 11:20:42;;;;;;;29.75;15.00;;;2.30;99.90;;;;;;5048957;28;20038;-60
2022/02/28 11:23:07;;;;;;;31.60;14.63;;;2.40;99.90;;;;;;5086117;28;20047;-60
2022/02/28 11:25:34;;;;;;;31.73;15.43;;;2.40;99.90;;;;;;5089088;28;20039;-60
2022/02/28 11:28:00;;;;;;;29.40;14.35;;;2.50;99.90;;;;;;5087180;28;20117;-60
2022/02/28 11:30:28;;;;;;;30.98;14.60;;;2.60;99.90;;;;;;5089053;28;20032;-59
2022/02/28 11:33:01;;;;;;;30.60;14.32;;;2.80;99.90;;;;;;5086870;28;20020;-60
2022/02/28 11:35:49;;;;;;;31.85;15.63;;;2.90;99.90;;;;;;5048778;28;20033;-59
2022/02/28 11:38:17;;;;;;;30.23;13.13;;;3.00;99.90;;;;;;5086622;28;20055;-59
2022/02/28 11:40:45;;;;;;;30.45;13.68;;;3.10;99.90;;;;;;5088899;28;20082;-60
2022/02/28 11:43:16;;;;;;;25.08;12.45;;;3.10;99.90;;;;;;5083202;28;20032;-60
2022/02/28 11:45:59;;;;;;;31.20;14.32;;;3.30;99.90;;;;;;5088581;28;20519;-60
2022/02/28 11:48:24;;;;;;;26.50;12.82;;;3.40;99.90;;;;;;5074060;28;20040;-59
2022/02/28 11:50:54;;;;;;;30.08;12.85;;;3.50;99.70;;;;;;5088106;28;20046;-59
2022/02/28 11:53:38;;;;;;;23.92;11.30;;;3.60;99.90;;;;;;5074903;28;20040;-60
2022/02/28 11:56:16;;;;;;;23.30;11.68;;;3.60;98.10;;;;;;5087892;28;20028;-60
2022/02/28 11:58:56;;;;;;;24.67;11.55;;;3.50;97.20;;;;;;5071738;28;20048;-59
2022/02/28 12:01:39;;;;;;;17.48;8.85;;;3.40;99.90;;;;;;5048623;28;20108;-59
2022/02/28 12:04:11;;;;;;;25.05;11.48;;;3.50;99.90;;;;;;5064125;28;20131;-60
2022/02/28 12:06:59;;;;;;;20.80;9.73;;;3.70;99.90;;;;;;5088223;28;20058;-59
2022/02/28 12:12:20;;;;;;;28.30;12.02;;;3.90;99.90;;;;;;5086637;28;20084;-59
2022/02/28 12:14:57;;;;;;;19.35;10.50;;;3.90;99.90;;;;;;5088814;28;20383;-60
2022/02/28 12:17:33;;;;;;;21.23;10.68;;;4.00;92.50;;;;;;5086265;28;20020;-59
2022/02/28 12:20:19;;;;;;;24.65;11.68;;;4.00;93.00;;;;;;5088842;28;20430;-60
2022/02/28 12:23:05;;;;;;;19.63;9.50;;;4.10;86.70;;;;;;5086179;28;20336;-59
2022/02/28 12:25:50;;;;;;;20.85;9.95;;;4.10;91.50;;;;;;5088498;28;20056;-60
2022/02/28 12:28:22;;;;;;;20.45;9.85;;;4.20;87.40;;;;;;5069631;28;20036;-60
2022/02/28 12:30:48;;;;;;;16.48;7.47;;;4.30;83.30;;;;;;5088458;28;20024;-59
2022/02/28 12:33:16;;;;;;;17.27;7.75;;;4.30;72.50;;;;;;5086121;28;20058;-60
2022/02/28 12:36:08;;;;;;;16.40;8.38;;;4.40;70.50;;;;;;5088352;28;20032;-59
2022/02/28 12:38:39;;;;;;;19.23;8.75;;;4.30;72.10;;;;;;5072404;28;20051;-60
2022/02/28 12:41:07;;;;;;;14.90;7.28;;;4.30;71.80;;;;;;5048257;28;20492;-60
2022/02/28 12:43:34;;;;;;;19.98;9.38;;;4.30;67.50;;;;;;5065038;28;20033;-60
2022/02/28 12:46:04;;;;;;;16.10;8.60;;;4.20;71.70;;;;;;5087718;28;20104;-60
2022/02/28 12:48:30;;;;;;;15.98;7.25;;;4.30;64.70;;;;;;5072842;28;20024;-59
2022/02/28 12:50:59;;;;;;;17.25;8.07;;;4.30;69.00;;;;;;5087830;28;20495;-60
2022/02/28 12:53:30;;;;;;;12.70;6.35;;;4.40;68.60;;;;;;5073833;28;20518;-59
2022/02/28 12:56:01;;;;;;;16.25;8.27;;;4.40;69.40;;;;;;5048059;28;20135;-60
2022/02/28 12:58:29;;;;;;;20.15;8.43;;;4.30;62.80;;;;;;5072533;28;20033;-59
2022/02/28 13:01:15;;;;;;;16.73;8.45;;;4.20;71.10;;;;;;5087679;28;20051;-60
2022/02/28 13:03:44;;;;;;;18.70;8.73;;;4.20;70.10;;;;;;5071658;28;20115;-59
2022/02/28 13:06:11;;;;;;;18.65;8.40;;;4.10;75.00;;;;;;5087865;28;20048;-60
2022/02/28 13:08:43;;;;;;;18.20;9.07;;;4.10;78.40;;;;;;5071822;28;20081;-60
2022/02/28 13:11:16;;;;;;;15.75;8.93;;;4.20;71.30;;;;;;5087775;28;20392;-60
2022/02/28 13:13:43;;;;;;;16.13;8.95;;;4.30;72.20;;;;;;5060952;28;20037;-60
2022/02/28 13:16:09;;;;;;;20.80;8.95;;;4.30;72.40;;;;;;5090662;28;20111;-59
2022/02/28 13:18:35;;;;;;;16.20;8.63;;;4.30;73.90;;;;;;5075412;28;20115;-59
2022/02/28 13:21:01;;;;;;;16.15;8.20;;;4.40;73.10;;;;;;5091130;28;20085;-60
2022/02/28 13:23:27;;;;;;;16.15;7.97;;;4.50;68.60;;;;;;5082204;28;20094;-59
2022/02/28 13:25:55;;;;;;;17.58;7.60;;;4.50;66.70;;;;;;5091446;28;20047;-60
2022/02/28 13:28:37;;;;;;;16.95;7.72;;;4.50;66.30;;;;;;5077614;28;20029;-59
2022/02/28 13:31:05;;;;;;;14.02;7.47;;;4.50;69.90;;;;;;5090749;28;20262;-60
2022/02/28 13:33:32;;;;;;;14.65;8.00;;;4.60;57.80;;;;;;5076069;28;20526;-59
2022/02/28 13:35:59;;;;;;;17.75;9.32;;;4.60;60.80;;;;;;5089029;28;20031;-60
2022/02/28 13:38:25;;;;;;;13.95;8.30;;;4.70;62.10;;;;;;5091414;28;20277;-59
2022/02/28 13:40:51;;;;;;;21.38;9.02;;;4.80;60.00;;;;;;5070273;28;20111;-59
2022/02/28 13:43:16;;;;;;;16.23;8.70;;;4.80;58.60;;;;;;5083456;28;20111;-60
2022/02/28 13:45:43;;;;;;;16.75;9.18;;;4.80;56.50;;;;;;5071627;28;20040;-59
2022/02/28 13:48:20;;;;;;;17.40;8.40;;;4.70;53.40;;;;;;5090739;28;20028;-60
2022/02/28 13:50:49;;;;;;;16.23;8.60;;;4.70;55.20;;;;;;5067323;28;20495;-60
2022/02/28 13:53:15;;;;;;;17.00;8.43;;;4.70;51.30;;;;;;5090760;28;20027;-59
2022/02/28 13:55:45;;;;;;;15.80;7.88;;;4.70;48.10;;;;;;5071400;28;20492;-59
2022/02/28 13:58:12;;;;;;;20.92;9.35;;;4.70;47.80;;;;;;5090467;28;20038;-60
2022/02/28 14:00:56;;;;;;;16.00;8.73;;;4.70;44.70;;;;;;5071590;28;20024;-60
2022/02/28 14:03:24;;;;;;;16.42;8.95;;;4.60;46.50;;;;;;5050662;28;20075;-60